createdAt,value
2023-01-17T00:01:02.067Z,92317.53
2023-01-17T00:03:28.310Z,92310.09
2023-01-17T00:05:54.570Z,92318.31
2023-01-17T00:08:20.795Z,92313.91
2023-01-17T00:10:47.039Z,92322.09
2023-01-17T00:13:13.279Z,92321.53
2023-01-17T00:15:39.533Z,92322.53
2023-01-17T00:18:05.796Z,92325.94
2023-01-17T00:20:32.027Z,92322.53
2023-01-17T00:22:58.260Z,92323.94
2023-01-17T00:25:24.499Z,92313.72
2023-01-17T00:27:50.724Z,92320.28
2023-01-17T00:30:16.980Z,92309.28
2023-01-17T00:32:43.249Z,92298.84
2023-01-17T00:35:09.492Z,92293.06
2023-01-17T00:37:35.738Z,92294.47
2023-01-17T00:40:02.057Z,92281.69
2023-01-17T00:42:28.355Z,92277.50
2023-01-17T00:44:54.594Z,92271.69
2023-01-17T00:47:20.829Z,92275.06
2023-01-17T00:49:47.097Z,92272.91
2023-01-17T00:52:13.368Z,92272.31
2023-01-17T00:54:39.651Z,92265.94
2023-01-17T00:57:05.892Z,92260.06
2023-01-17T00:59:32.147Z,92259.31
2023-01-17T01:01:58.566Z,92247.47
2023-01-17T01:04:24.998Z,92237.09
2023-01-17T01:06:51.257Z,92243.63
2023-01-17T01:09:17.494Z,92247.09
2023-01-17T01:11:43.735Z,92250.47
2023-01-17T01:14:09.992Z,92239.88
2023-01-17T01:16:36.342Z,92248.47
2023-01-17T01:19:02.633Z,92242.09
2023-01-17T01:24:12.842Z,92244.69
2023-01-17T01:26:39.099Z,92233.31
2023-01-17T01:29:05.392Z,92237.09
2023-01-17T01:31:31.696Z,92231.50
2023-01-17T01:33:57.977Z,92236.91
2023-01-17T01:36:24.260Z,92231.69
2023-01-17T01:38:50.572Z,92224.09
2023-01-17T01:41:16.850Z,92220.09
2023-01-17T01:43:43.125Z,92215.28
2023-01-17T01:46:09.399Z,92216.28
2023-01-17T01:48:35.665Z,92219.13
2023-01-17T01:51:01.936Z,92214.31
2023-01-17T01:53:28.206Z,92212.50
2023-01-17T01:55:54.628Z,92196.47
2023-01-17T01:58:20.872Z,92199.06
2023-01-17T02:00:47.236Z,92190.88
2023-01-17T02:03:13.601Z,92189.09
2023-01-17T02:05:39.866Z,92182.69
2023-01-17T02:08:06.104Z,92190.13
2023-01-17T02:10:32.338Z,92185.50
2023-01-17T02:12:58.592Z,92189.72
2023-01-17T02:15:24.857Z,92185.28
2023-01-17T02:17:51.240Z,92180.09
2023-01-17T02:20:17.504Z,92173.06
2023-01-17T02:22:43.764Z,92173.66
2023-01-17T02:25:10.045Z,92164.47
2023-01-17T02:27:36.280Z,92163.28
2023-01-17T02:30:02.526Z,92157.66
2023-01-17T02:32:28.803Z,92163.28
2023-01-17T02:34:55.072Z,92150.84
2023-01-17T02:37:21.308Z,92148.88
2023-01-17T02:39:47.546Z,92148.88
2023-01-17T02:42:13.812Z,92143.88
2023-01-17T02:44:40.056Z,92143.28
2023-01-17T02:47:06.305Z,92137.88
2023-01-17T02:49:32.576Z,92130.50
2023-01-17T02:51:58.822Z,92128.06
2023-01-17T02:54:25.077Z,92127.06
2023-01-17T02:56:51.357Z,92119.47
2023-01-17T02:59:17.613Z,92116.88
2023-01-17T03:01:43.960Z,92106.72
2023-01-17T03:04:10.277Z,92097.50
2023-01-17T03:06:36.545Z,92096.69
2023-01-17T03:09:02.813Z,92095.47
2023-01-17T03:11:29.043Z,92085.28
2023-01-17T03:13:55.284Z,92085.47
2023-01-17T03:16:21.641Z,92081.91
2023-01-17T03:18:47.889Z,92074.69
2023-01-17T03:21:14.128Z,92074.88
2023-01-17T03:23:40.382Z,92059.88
2023-01-17T03:26:06.646Z,92064.88
2023-01-17T03:28:32.907Z,92065.50
2023-01-17T03:30:59.185Z,92051.69
2023-01-17T03:33:25.471Z,92045.28
2023-01-17T03:35:51.741Z,92049.28
2023-01-17T03:38:18.004Z,92043.50
2023-01-17T03:40:44.267Z,92037.50
2023-01-17T03:43:10.523Z,92036.69
2023-01-17T03:45:36.834Z,92031.09
2023-01-17T03:48:03.147Z,92019.88
2023-01-17T03:50:29.404Z,92015.69
2023-01-17T03:52:55.653Z,92011.91
2023-01-17T03:55:21.886Z,92004.69
2023-01-17T03:57:48.148Z,92007.09
2023-01-17T04:00:14.405Z,92001.91
2023-01-17T04:02:40.731Z,91999.91
2023-01-17T04:05:06.984Z,91988.31
2023-01-17T04:07:33.278Z,91985.31
2023-01-17T04:09:59.567Z,91986.50
2023-01-17T04:12:25.859Z,91974.50
2023-01-17T04:14:52.120Z,91979.91
2023-01-17T04:17:18.368Z,91979.91
2023-01-17T04:19:44.621Z,91978.94
2023-01-17T04:22:10.872Z,91979.31
2023-01-17T04:24:37.121Z,91965.53
2023-01-17T04:27:03.364Z,91965.53
2023-01-17T04:29:29.597Z,91966.91
2023-01-17T04:31:55.871Z,91966.53
2023-01-17T04:34:22.141Z,91962.56
2023-01-17T04:36:48.437Z,91962.72
2023-01-17T04:39:14.673Z,91950.75
2023-01-17T04:41:40.931Z,91957.94
2023-01-17T04:44:07.441Z,91951.53
2023-01-17T04:46:33.705Z,91946.94
2023-01-17T04:48:59.963Z,91945.75
2023-01-17T04:51:26.247Z,91947.97
2023-01-17T04:53:52.485Z,91940.75
2023-01-17T04:56:18.721Z,91936.38
2023-01-17T04:58:44.962Z,91927.19
2023-01-17T05:01:11.302Z,91919.56
2023-01-17T05:03:37.636Z,91921.38
2023-01-17T05:06:03.894Z,91919.56
2023-01-17T05:08:30.168Z,91917.75
2023-01-17T05:10:56.427Z,91912.78
2023-01-17T05:13:22.694Z,91919.97
2023-01-17T05:15:48.989Z,91919.56
2023-01-17T05:18:15.253Z,91902.75
2023-01-17T05:20:41.504Z,91910.78
2023-01-17T05:23:07.772Z,91904.78
2023-01-17T05:25:34.014Z,91905.38
2023-01-17T05:28:00.365Z,91905.78
2023-01-17T05:30:26.630Z,91911.97
2023-01-17T05:32:52.956Z,91905.56
2023-01-17T05:35:19.189Z,91903.78
2023-01-17T05:37:45.437Z,91890.97
2023-01-17T05:40:11.738Z,91891.16
2023-01-17T05:42:38.038Z,91890.78
2023-01-17T05:45:04.283Z,91890.19
2023-01-17T05:47:30.546Z,91883.94
2023-01-17T05:49:56.785Z,91882.13
2023-01-17T05:52:23.024Z,91875.97
2023-01-17T05:54:49.263Z,91874.97
2023-01-17T05:57:15.557Z,91862.56
2023-01-17T05:59:41.830Z,91868.78
2023-01-17T06:02:08.073Z,91863.94
2023-01-17T06:04:34.374Z,91872.00
2023-01-17T06:07:00.667Z,91877.19
2023-01-17T06:09:26.940Z,91878.59
2023-01-17T06:11:53.193Z,91880.75
2023-01-17T06:14:19.453Z,91870.19
2023-01-17T06:16:45.746Z,91868.81
2023-01-17T06:19:12.017Z,91863.59
2023-01-17T06:21:38.265Z,91864.00
2023-01-17T06:24:04.532Z,91855.63
2023-01-17T06:26:30.885Z,91855.22
2023-01-17T06:28:57.143Z,91861.03
2023-01-17T06:31:23.437Z,91846.81
2023-01-17T06:33:49.756Z,91841.63
2023-01-17T06:36:16.031Z,91839.25
2023-01-17T06:38:42.293Z,91830.03
2023-01-17T06:41:08.545Z,91830.63
2023-01-17T06:43:34.787Z,91832.44
2023-01-17T06:46:01.065Z,91817.25
2023-01-17T06:48:27.350Z,91824.81
2023-01-17T06:50:53.588Z,91814.44
2023-01-17T06:53:19.854Z,91803.47
2023-01-17T06:55:46.104Z,91801.28
2023-01-17T06:58:12.363Z,91804.03
2023-01-17T07:00:40.707Z,91795.06
2023-01-17T07:03:07.380Z,91801.66
2023-01-17T07:05:33.629Z,91804.03
2023-01-17T07:07:59.869Z,91785.47
2023-01-17T07:10:26.114Z,91783.44
2023-01-17T07:12:52.370Z,91775.66
2023-01-17T07:15:18.619Z,91763.25
2023-01-17T07:17:44.876Z,91771.69
2023-01-17T07:20:11.127Z,91757.09
2023-01-17T07:22:37.378Z,91761.28
2023-01-17T07:25:03.623Z,91765.47
2023-01-17T07:27:29.908Z,91768.44
2023-01-17T07:29:56.147Z,91773.47
2023-01-17T07:32:22.409Z,91769.47
2023-01-17T07:34:48.662Z,91751.06
2023-01-17T07:37:15.399Z,91751.28
2023-01-17T07:39:41.849Z,91760.06
2023-01-17T07:42:08.112Z,91757.47
2023-01-17T07:44:34.373Z,91758.47
2023-01-17T07:47:00.614Z,91761.66
2023-01-17T07:49:26.861Z,91759.06
2023-01-17T07:51:53.105Z,91758.03
2023-01-17T07:54:19.368Z,91755.66
2023-01-17T07:56:45.646Z,91759.66
2023-01-17T07:59:11.911Z,91758.47
2023-01-17T08:01:38.280Z,91755.88
2023-01-17T08:04:04.646Z,91760.06
2023-01-17T08:06:30.927Z,91753.28
2023-01-17T08:08:57.199Z,91741.09
2023-01-17T08:11:23.459Z,91750.47
2023-01-17T08:13:49.714Z,91749.25
2023-01-17T08:16:15.991Z,91748.88
2023-01-17T08:18:42.247Z,91746.84
2023-01-17T08:21:08.484Z,91748.41
2023-01-17T08:23:34.738Z,91753.81
2023-01-17T08:26:00.991Z,91737.00
2023-01-17T08:28:27.229Z,91740.84
2023-01-17T08:30:53.494Z,91736.44
2023-01-17T08:33:19.749Z,91732.41
2023-01-17T08:35:46.000Z,91732.47
2023-01-17T08:38:12.265Z,91732.66
2023-01-17T08:40:38.517Z,91738.88
2023-01-17T08:43:04.767Z,91734.09
2023-01-17T08:45:31.045Z,91734.09
2023-01-17T08:47:57.291Z,91732.53
2023-01-17T08:50:23.571Z,91736.13
2023-01-17T08:52:49.820Z,91731.75
2023-01-17T08:55:16.082Z,91722.94
2023-01-17T08:57:42.342Z,91713.91
2023-01-17T09:00:08.595Z,91707.75
2023-01-17T09:02:34.832Z,91712.94
2023-01-17T09:05:01.079Z,91718.88
2023-01-17T09:07:27.336Z,91711.25
2023-01-17T09:09:53.583Z,91714.03
2023-01-17T09:12:19.829Z,91705.47
2023-01-17T09:14:46.070Z,91706.03
2023-01-17T09:17:14.456Z,91709.47
2023-01-17T09:19:40.822Z,91699.28
2023-01-17T09:22:07.089Z,91701.06
2023-01-17T09:24:33.361Z,91693.84
2023-01-17T09:26:59.624Z,91688.44
2023-01-17T09:29:25.889Z,91689.66
2023-01-17T09:31:52.161Z,91684.59
2023-01-17T09:34:18.422Z,91691.22
2023-01-17T09:36:44.691Z,91694.56
2023-01-17T09:39:10.951Z,91693.97
2023-01-17T09:41:37.205Z,91697.53
2023-01-17T09:44:03.455Z,91693.56
2023-01-17T09:46:29.704Z,91699.00
2023-01-17T09:48:55.963Z,91707.34
2023-01-17T09:51:22.220Z,91705.50
2023-01-17T09:53:48.461Z,91707.13
2023-01-17T09:56:14.701Z,91694.97
2023-01-17T09:58:40.949Z,91695.41
2023-01-17T10:01:07.333Z,91699.38
2023-01-17T10:03:33.711Z,91691.56
2023-01-17T10:06:00.095Z,91682.81
2023-01-17T10:08:26.376Z,91685.16
2023-01-17T10:10:52.632Z,91674.16
2023-01-17T10:13:18.893Z,91664.00
2023-01-17T10:15:45.156Z,91662.88
2023-01-17T10:18:19.065Z,91658.03
2023-01-17T10:20:54.562Z,91657.78
2023-01-17T10:23:20.801Z,91649.41
2023-01-17T10:25:47.040Z,91646.22
2023-01-17T10:28:13.276Z,91647.44
2023-01-17T10:30:39.569Z,91649.84
2023-01-17T10:33:05.823Z,91641.59
2023-01-17T10:35:32.091Z,91638.25
2023-01-17T10:37:58.349Z,91634.50
2023-01-17T10:40:24.605Z,91633.31
2023-01-17T10:42:50.873Z,91624.13
2023-01-17T10:45:17.159Z,91622.72
2023-01-17T10:47:43.424Z,91622.97
2023-01-17T10:50:09.683Z,91619.34
2023-01-17T10:52:35.966Z,91615.69
2023-01-17T10:55:02.341Z,91595.69
2023-01-17T10:57:28.580Z,91605.09
2023-01-17T10:59:54.849Z,91610.94
2023-01-17T11:02:21.172Z,91606.75
2023-01-17T11:04:47.470Z,91596.75
2023-01-17T11:07:13.707Z,91597.34
2023-01-17T11:09:39.982Z,91596.34
2023-01-17T11:12:06.252Z,91598.56
2023-01-17T11:14:32.515Z,91590.97
2023-01-17T11:16:58.759Z,91594.53
2023-01-17T11:19:25.007Z,91581.97
2023-01-17T11:21:51.264Z,91588.97
2023-01-17T11:24:17.511Z,91584.78
2023-01-17T11:26:43.753Z,91569.81
2023-01-17T11:29:09.992Z,91572.78
2023-01-17T11:31:36.238Z,91567.97
2023-01-17T11:34:02.475Z,91565.53
2023-01-17T11:36:28.719Z,91560.13
2023-01-17T11:38:54.977Z,91563.50
2023-01-17T11:41:21.243Z,91565.75
2023-01-17T11:43:47.485Z,91563.59
2023-01-17T11:46:13.794Z,91566.31
2023-01-17T11:48:40.060Z,91560.56
2023-01-17T11:51:06.301Z,91561.34
2023-01-17T11:53:35.392Z,91562.00
2023-01-17T11:56:01.661Z,91566.59
2023-01-17T11:58:27.928Z,91558.84
2023-01-17T12:00:54.186Z,91569.88
2023-01-17T12:03:20.437Z,91560.50
2023-01-17T12:05:46.692Z,91550.25
2023-01-17T12:08:12.981Z,91548.56
2023-01-17T12:10:39.219Z,91534.88
2023-01-17T12:13:05.484Z,91536.81
2023-01-17T12:15:31.765Z,91543.84
2023-01-17T12:17:58.009Z,91538.31
2023-01-17T12:20:24.278Z,91556.75
2023-01-17T12:22:50.547Z,91540.16
2023-01-17T12:25:16.801Z,91550.13
2023-01-17T12:27:43.618Z,91543.97
2023-01-17T12:30:10.176Z,91538.75
2023-01-17T12:32:36.448Z,91550.44
2023-01-17T12:35:02.699Z,91547.38
2023-01-17T12:37:29.021Z,91546.72
2023-01-17T12:39:55.292Z,91543.63
2023-01-17T12:42:21.538Z,91539.91
2023-01-17T12:44:47.802Z,91539.31
2023-01-17T12:47:14.096Z,91539.91
2023-01-17T12:49:40.351Z,91543.38
2023-01-17T12:52:06.626Z,91543.06
2023-01-17T12:54:32.870Z,91547.63
2023-01-17T12:56:59.125Z,91556.25
2023-01-17T12:59:25.387Z,91552.97
2023-01-17T13:01:51.779Z,91555.28
2023-01-17T13:04:18.111Z,91552.09
2023-01-17T13:06:44.364Z,91549.13
2023-01-17T13:09:10.637Z,91537.06
2023-01-17T13:11:36.891Z,91549.19
2023-01-17T13:14:03.150Z,91538.94
2023-01-17T13:16:29.504Z,91541.97
2023-01-17T13:18:55.755Z,91545.72
2023-01-17T13:21:22.004Z,91549.09
2023-01-17T13:23:48.269Z,91548.50
2023-01-17T13:26:14.515Z,91558.00
2023-01-17T13:28:40.765Z,91560.75
2023-01-17T13:31:07.084Z,91558.44
2023-01-17T13:33:33.361Z,91561.09
2023-01-17T13:35:59.604Z,91561.72
2023-01-17T13:38:25.860Z,91561.75
2023-01-17T13:40:52.100Z,91561.19
2023-01-17T13:43:18.337Z,91567.53
2023-01-17T13:45:44.618Z,91568.56
2023-01-17T13:48:10.881Z,91564.50
2023-01-17T13:50:37.126Z,91571.94
2023-01-17T13:53:03.364Z,91570.53
2023-01-17T13:55:29.593Z,91574.84
2023-01-17T13:57:55.856Z,91569.66
2023-01-17T14:00:22.191Z,91585.31
2023-01-17T14:02:48.441Z,91582.88
2023-01-17T14:05:14.730Z,91576.78
2023-01-17T14:07:40.968Z,91586.19
2023-01-17T14:10:07.258Z,91583.16
2023-01-17T14:12:33.642Z,91589.94
2023-01-17T14:14:59.895Z,91586.50
2023-01-17T14:17:26.128Z,91588.06
2023-01-17T14:19:52.376Z,91588.72
2023-01-17T14:22:18.620Z,91589.31
2023-01-17T14:24:44.883Z,91584.41
2023-01-17T14:27:11.138Z,91592.25
2023-01-17T14:29:37.389Z,91587.81
2023-01-17T14:32:03.621Z,91590.28
2023-01-17T14:34:29.875Z,91594.53
2023-01-17T14:36:56.108Z,91598.03
2023-01-17T14:39:22.351Z,91588.47
2023-01-17T14:41:48.601Z,91615.47
2023-01-17T14:44:14.851Z,91615.75
2023-01-17T14:46:41.093Z,91617.47
2023-01-17T14:49:07.341Z,91615.06
2023-01-17T14:51:33.592Z,91613.53
2023-01-17T14:53:59.847Z,91614.38
2023-01-17T14:56:26.142Z,91606.75
2023-01-17T14:58:52.384Z,91610.81
2023-01-17T15:01:18.826Z,91615.69
2023-01-17T15:03:45.178Z,91614.31
2023-01-17T15:06:11.440Z,91608.66
2023-01-17T15:08:37.691Z,91607.66
2023-01-17T15:11:03.920Z,91607.53
2023-01-17T15:13:43.464Z,91605.19
2023-01-17T15:16:10.802Z,91593.25
2023-01-17T15:18:37.052Z,91599.41
2023-01-17T15:21:03.301Z,91598.78
2023-01-17T15:23:29.553Z,91591.44
2023-01-17T15:25:55.810Z,91591.25
2023-01-17T15:28:22.059Z,91587.34
2023-01-17T15:30:50.043Z,91596.78
2023-01-17T15:33:18.249Z,91598.38
2023-01-17T15:35:44.542Z,91605.22
2023-01-17T15:38:13.104Z,91609.69
2023-01-17T15:40:40.117Z,91610.97
2023-01-17T15:43:06.377Z,91621.06
2023-01-17T15:45:32.652Z,91614.72
2023-01-17T15:47:58.909Z,91620.47
2023-01-17T15:50:25.169Z,91613.81
2023-01-17T15:52:51.420Z,91626.81
2023-01-17T15:55:17.675Z,91618.44
2023-01-17T15:57:43.919Z,91625.44
2023-01-17T16:00:10.171Z,91625.25
2023-01-17T16:02:36.586Z,91631.94
2023-01-17T16:05:02.907Z,91629.97
2023-01-17T16:07:29.174Z,91629.97
2023-01-17T16:09:55.409Z,91632.59
2023-01-17T16:12:21.652Z,91634.31
2023-01-17T16:15:06.313Z,91644.28
2023-01-17T16:17:34.125Z,91638.94
2023-01-17T16:20:00.422Z,91633.75
2023-01-17T16:22:26.708Z,91637.06
2023-01-17T16:24:52.952Z,91636.88
2023-01-17T16:27:19.227Z,91630.22
2023-01-17T16:29:45.485Z,91636.16
2023-01-17T16:32:11.748Z,91622.94
2023-01-17T16:34:37.989Z,91629.44
2023-01-17T16:37:04.243Z,91618.75
2023-01-17T16:39:30.507Z,91622.94
2023-01-17T16:41:56.853Z,91617.50
2023-01-17T16:44:23.126Z,91603.69
2023-01-17T16:46:49.378Z,91620.91
2023-01-17T16:49:15.654Z,91624.16
2023-01-17T16:51:41.943Z,91630.16
2023-01-17T16:54:08.185Z,91637.13
2023-01-17T16:56:34.439Z,91626.28
2023-01-17T16:59:00.681Z,91643.41
2023-01-17T17:01:27.000Z,91641.88
2023-01-17T17:03:53.332Z,91648.22
2023-01-17T17:06:19.620Z,91648.81
2023-01-17T17:08:45.869Z,91641.81
2023-01-17T17:11:12.135Z,91635.28
2023-01-17T17:13:38.406Z,91639.88
2023-01-17T17:16:04.959Z,91646.34
2023-01-17T17:18:31.213Z,91646.13
2023-01-17T17:20:57.445Z,91654.06
2023-01-17T17:23:23.687Z,91650.00
2023-01-17T17:25:49.933Z,91652.81
2023-01-17T17:28:16.180Z,91668.88
2023-01-17T17:30:42.415Z,91679.88
2023-01-17T17:33:08.679Z,91676.59
2023-01-17T17:35:34.958Z,91695.59
2023-01-17T17:38:01.252Z,91686.97
2023-01-17T17:40:27.513Z,91691.63
2023-01-17T17:42:53.774Z,91683.97
2023-01-17T17:45:20.027Z,91686.19
2023-01-17T17:47:46.402Z,91691.16
2023-01-17T17:50:12.663Z,91697.53
2023-01-17T17:52:38.912Z,91696.88
2023-01-17T17:55:05.210Z,91690.16
2023-01-17T17:57:31.451Z,91696.78
2023-01-17T17:59:57.725Z,91703.53
2023-01-17T18:02:23.978Z,91697.88
2023-01-17T18:04:50.357Z,91698.84
2023-01-17T18:07:16.646Z,91700.81
2023-01-17T18:09:42.938Z,91702.78
2023-01-17T18:12:09.212Z,91710.34
2023-01-17T18:14:35.473Z,91703.53
2023-01-17T18:17:01.708Z,91705.13
2023-01-17T18:19:28.034Z,91712.69
2023-01-17T18:21:54.297Z,91715.53
2023-01-17T18:24:20.532Z,91708.09
2023-01-17T18:26:46.861Z,91712.31
2023-01-17T18:29:13.105Z,91721.66
2023-01-17T18:31:39.437Z,91719.06
2023-01-17T18:34:05.753Z,91721.78
2023-01-17T18:36:32.001Z,91725.63
2023-01-17T18:38:58.267Z,91724.97
2023-01-17T18:41:24.525Z,91724.19
2023-01-17T18:43:50.796Z,91727.56
2023-01-17T18:46:17.088Z,91728.19
2023-01-17T18:48:43.366Z,91728.00
2023-01-17T18:51:09.656Z,91730.63
2023-01-17T18:53:35.899Z,91724.97
2023-01-17T18:56:02.187Z,91725.38
2023-01-17T18:58:28.449Z,91731.81
2023-01-17T19:00:54.819Z,91728.19
2023-01-17T19:03:21.164Z,91727.69
2023-01-17T19:05:47.416Z,91718.53
2023-01-17T19:08:13.691Z,91714.69
2023-01-17T19:10:39.937Z,91707.06
2023-01-17T19:13:06.180Z,91713.78
2023-01-17T19:15:32.425Z,91718.03
2023-01-17T19:17:58.691Z,91724.63
2023-01-17T19:20:24.930Z,91730.84
2023-01-17T19:22:51.187Z,91730.03
2023-01-17T19:25:17.533Z,91737.84
2023-01-17T19:27:43.768Z,91738.59
2023-01-17T19:30:10.032Z,91747.47
2023-01-17T19:32:36.288Z,91740.41
2023-01-17T19:35:02.545Z,91742.00
2023-01-17T19:37:28.794Z,91751.63
2023-01-17T19:39:55.060Z,91751.81
2023-01-17T19:42:21.353Z,91755.91
2023-01-17T19:44:47.615Z,91762.06
2023-01-17T19:47:13.960Z,91764.44
2023-01-17T19:49:40.529Z,91767.09
2023-01-17T19:52:06.780Z,91767.75
2023-01-17T19:54:33.038Z,91764.00
2023-01-17T19:56:59.300Z,91772.19
2023-01-17T19:59:25.551Z,91767.97
2023-01-17T20:01:51.969Z,91769.91
2023-01-17T20:04:18.427Z,91779.28
2023-01-17T20:06:44.766Z,91782.88
2023-01-17T20:09:11.024Z,91774.53
2023-01-17T20:11:37.287Z,91775.28
2023-01-17T20:14:03.558Z,91780.78
2023-01-17T20:16:29.865Z,91783.59
2023-01-17T20:18:56.151Z,91784.81
2023-01-17T20:21:22.403Z,91786.25
2023-01-17T20:23:48.759Z,91785.19
2023-01-17T20:26:15.067Z,91774.22
2023-01-17T20:28:41.324Z,91784.44
2023-01-17T20:31:07.591Z,91778.88
2023-01-17T20:33:33.836Z,91776.66
2023-01-17T20:36:09.549Z,91790.44
2023-01-17T20:38:37.081Z,91786.81
2023-01-17T20:41:03.336Z,91788.06
2023-01-17T20:43:29.605Z,91790.97
2023-01-17T20:45:55.863Z,91783.56
2023-01-17T20:48:22.153Z,91784.69
2023-01-17T20:50:49.425Z,91786.88
2023-01-17T20:53:15.673Z,91781.47
2023-01-17T20:55:41.951Z,91790.53
2023-01-17T20:58:08.192Z,91789.09
2023-01-17T21:00:34.449Z,91790.22
2023-01-17T21:03:00.758Z,91800.06
2023-01-17T21:05:27.033Z,91804.91
2023-01-17T21:07:53.280Z,91806.47
2023-01-17T21:10:19.524Z,91815.63
2023-01-17T21:12:45.773Z,91814.66
2023-01-17T21:15:12.137Z,91818.47
2023-01-17T21:17:38.375Z,91817.84
2023-01-17T21:20:04.608Z,91822.81
2023-01-17T21:22:30.899Z,91822.41
2023-01-17T21:24:57.164Z,91821.81
2023-01-17T21:27:23.429Z,91827.88
2023-01-17T21:29:49.695Z,91831.06
2023-01-17T21:32:15.960Z,91830.34
2023-01-17T21:34:42.228Z,91837.13
2023-01-17T21:37:08.496Z,91835.09
2023-01-17T21:39:34.748Z,91846.28
2023-01-17T21:42:00.998Z,91852.63
2023-01-17T21:44:27.256Z,91853.41
2023-01-17T21:46:56.118Z,91867.75
2023-01-17T21:49:22.688Z,91858.19
2023-01-17T21:51:48.936Z,91861.63
2023-01-17T21:54:15.174Z,91858.84
2023-01-17T21:56:41.428Z,91865.84
2023-01-17T21:59:07.677Z,91861.84
2023-01-17T22:01:33.991Z,91858.38
2023-01-17T22:04:00.301Z,91872.00
2023-01-17T22:06:26.547Z,91878.56
2023-01-17T22:08:52.804Z,91871.22
2023-01-17T22:11:19.057Z,91874.41
2023-01-17T22:13:45.332Z,91867.41
2023-01-17T22:16:11.618Z,91852.84
2023-01-17T22:18:37.891Z,91867.81
2023-01-17T22:21:04.169Z,91874.19
2023-01-17T22:23:30.435Z,91875.19
2023-01-17T22:25:56.669Z,91879.34
2023-01-17T22:28:22.928Z,91886.53
2023-01-17T22:30:49.180Z,91886.94
2023-01-17T22:33:15.434Z,91893.78
2023-01-17T22:35:41.693Z,91901.53
2023-01-17T22:38:07.942Z,91906.63
2023-01-17T22:40:34.182Z,91932.94
2023-01-17T22:43:00.491Z,91932.50
2023-01-17T22:45:26.789Z,91943.28
2023-01-17T22:47:53.068Z,91940.09
2023-01-17T22:50:19.333Z,91936.91
2023-01-17T22:52:45.628Z,91934.38
2023-01-17T22:55:11.895Z,91942.56
2023-01-17T22:57:38.168Z,91937.97
2023-01-17T23:00:04.416Z,91946.75
2023-01-17T23:02:30.705Z,91943.75
2023-01-17T23:04:56.967Z,91940.94
2023-01-17T23:07:23.231Z,91937.97
2023-01-17T23:09:49.482Z,91936.16
2023-01-17T23:12:15.744Z,91942.16
2023-01-17T23:14:42.110Z,91934.75
2023-01-17T23:17:08.400Z,91932.38
2023-01-17T23:19:34.695Z,91939.53
2023-01-17T23:22:00.940Z,91934.34
2023-01-17T23:24:27.209Z,91931.16
2023-01-17T23:26:53.468Z,91925.56
2023-01-17T23:29:19.710Z,91928.56
2023-01-17T23:31:45.983Z,91927.53
2023-01-17T23:34:12.236Z,91933.16
2023-01-17T23:36:38.480Z,91920.38
2023-01-17T23:39:04.743Z,91909.38
2023-01-17T23:41:30.993Z,91907.78
2023-01-17T23:43:57.284Z,91909.97
2023-01-17T23:46:23.579Z,91919.53
2023-01-17T23:48:49.871Z,91925.34
2023-01-17T23:51:16.106Z,91925.56
2023-01-17T23:53:42.356Z,91929.56
2023-01-17T23:56:08.636Z,91943.34
2023-01-17T23:58:34.913Z,91931.75
